sensor_id;sensor_type;location;lat;lon;timestamp;P1;durP1;ratioP1;P2;durP2;ratioP2
29550;SDS011;16488;52.396;10.696;2023-02-01T00:01:26;24.13;;;4.78;;
29550;SDS011;16488;52.396;10.696;2023-02-01T00:03:51;24.63;;;5.32;;
29550;SDS011;16488;52.396;10.696;2023-02-01T00:06:17;19.25;;;3.40;;
29550;SDS011;16488;52.396;10.696;2023-02-01T00:08:43;22.83;;;3.83;;
29550;SDS011;16488;52.396;10.696;2023-02-01T00:11:09;23.70;;;3.50;;
29550;SDS011;16488;52.396;10.696;2023-02-01T00:13:37;27.92;;;5.05;;
29550;SDS011;16488;52.396;10.696;2023-02-01T00:16:06;29.73;;;5.50;;
29550;SDS011;16488;52.396;10.696;2023-02-01T00:18:33;29.25;;;5.20;;
29550;SDS011;16488;52.396;10.696;2023-02-01T00:20:59;41.60;;;8.60;;
29550;SDS011;16488;52.396;10.696;2023-02-01T00:25:51;19.75;;;3.83;;
29550;SDS011;16488;52.396;10.696;2023-02-01T00:28:17;27.88;;;4.00;;
29550;SDS011;16488;52.396;10.696;2023-02-01T00:30:43;32.00;;;5.45;;
29550;SDS011;16488;52.396;10.696;2023-02-01T00:33:08;30.20;;;5.47;;
29550;SDS011;16488;52.396;10.696;2023-02-01T00:35:34;31.25;;;6.93;;
29550;SDS011;16488;52.396;10.696;2023-02-01T00:38:00;24.65;;;4.53;;
29550;SDS011;16488;52.396;10.696;2023-02-01T00:40:26;30.17;;;4.07;;
29550;SDS011;16488;52.396;10.696;2023-02-01T00:42:52;32.13;;;6.13;;
29550;SDS011;16488;52.396;10.696;2023-02-01T00:45:18;20.40;;;3.65;;
29550;SDS011;16488;52.396;10.696;2023-02-01T00:47:44;18.23;;;4.47;;
29550;SDS011;16488;52.396;10.696;2023-02-01T00:50:09;26.50;;;4.15;;
29550;SDS011;16488;52.396;10.696;2023-02-01T00:52:35;33.00;;;4.38;;
29550;SDS011;16488;52.396;10.696;2023-02-01T00:55:01;28.20;;;4.65;;
29550;SDS011;16488;52.396;10.696;2023-02-01T00:57:27;29.63;;;3.97;;
29550;SDS011;16488;52.396;10.696;2023-02-01T00:59:52;26.80;;;5.65;;
29550;SDS011;16488;52.396;10.696;2023-02-01T01:02:18;22.70;;;4.75;;
29550;SDS011;16488;52.396;10.696;2023-02-01T01:04:43;25.73;;;3.95;;
29550;SDS011;16488;52.396;10.696;2023-02-01T01:07:09;31.48;;;6.32;;
29550;SDS011;16488;52.396;10.696;2023-02-01T01:09:34;25.10;;;4.53;;
29550;SDS011;16488;52.396;10.696;2023-02-01T01:12:00;28.80;;;6.38;;
29550;SDS011;16488;52.396;10.696;2023-02-01T01:14:29;29.63;;;5.45;;
29550;SDS011;16488;52.396;10.696;2023-02-01T01:16:55;25.88;;;4.88;;
29550;SDS011;16488;52.396;10.696;2023-02-01T01:19:21;31.85;;;5.38;;
29550;SDS011;16488;52.396;10.696;2023-02-01T01:21:46;31.83;;;5.93;;
29550;SDS011;16488;52.396;10.696;2023-02-01T01:24:12;25.00;;;5.85;;
29550;SDS011;16488;52.396;10.696;2023-02-01T01:26:38;22.73;;;4.82;;
29550;SDS011;16488;52.396;10.696;2023-02-01T01:29:03;27.92;;;4.72;;
29550;SDS011;16488;52.396;10.696;2023-02-01T01:31:29;27.80;;;5.93;;
29550;SDS011;16488;52.396;10.696;2023-02-01T01:33:56;35.88;;;4.97;;
29550;SDS011;16488;52.396;10.696;2023-02-01T01:36:24;27.23;;;4.90;;
29550;SDS011;16488;52.396;10.696;2023-02-01T01:38:50;23.13;;;4.50;;
29550;SDS011;16488;52.396;10.696;2023-02-01T01:41:18;26.35;;;5.78;;
29550;SDS011;16488;52.396;10.696;2023-02-01T01:46:15;37.58;;;7.03;;
29550;SDS011;16488;52.396;10.696;2023-02-01T01:48:45;38.97;;;6.22;;
29550;SDS011;16488;52.396;10.696;2023-02-01T01:51:14;35.35;;;5.05;;
29550;SDS011;16488;52.396;10.696;2023-02-01T01:53:45;26.48;;;5.65;;
29550;SDS011;16488;52.396;10.696;2023-02-01T01:56:18;26.15;;;3.85;;
29550;SDS011;16488;52.396;10.696;2023-02-01T01:58:44;28.45;;;5.25;;
29550;SDS011;16488;52.396;10.696;2023-02-01T02:01:09;27.42;;;3.88;;
29550;SDS011;16488;52.396;10.696;2023-02-01T02:03:44;23.23;;;4.05;;
29550;SDS011;16488;52.396;10.696;2023-02-01T02:06:16;26.17;;;5.32;;
29550;SDS011;16488;52.396;10.696;2023-02-01T02:08:51;30.98;;;5.63;;
29550;SDS011;16488;52.396;10.696;2023-02-01T02:11:17;22.08;;;4.30;;
29550;SDS011;16488;52.396;10.696;2023-02-01T02:13:45;27.95;;;4.47;;
29550;SDS011;16488;52.396;10.696;2023-02-01T02:33:17;58.83;;;10.05;;
29550;SDS011;16488;52.396;10.696;2023-02-01T02:41:54;46.83;;;6.32;;
29550;SDS011;16488;52.396;10.696;2023-02-01T02:50:54;33.90;;;5.43;;
29550;SDS011;16488;52.396;10.696;2023-02-01T02:56:36;26.15;;;5.32;;
29550;SDS011;16488;52.396;10.696;2023-02-01T02:59:21;32.20;;;6.28;;
29550;SDS011;16488;52.396;10.696;2023-02-01T03:02:08;26.20;;;4.15;;
29550;SDS011;16488;52.396;10.696;2023-02-01T03:04:53;32.75;;;4.72;;
29550;SDS011;16488;52.396;10.696;2023-02-01T03:10:20;16.13;;;3.53;;
29550;SDS011;16488;52.396;10.696;2023-02-01T03:13:24;28.20;;;4.90;;
29550;SDS011;16488;52.396;10.696;2023-02-01T03:16:03;32.50;;;5.03;;
29550;SDS011;16488;52.396;10.696;2023-02-01T03:21:00;26.20;;;4.55;;
29550;SDS011;16488;52.396;10.696;2023-02-01T03:23:30;25.30;;;4.57;;
29550;SDS011;16488;52.396;10.696;2023-02-01T03:25:59;27.55;;;4.63;;
29550;SDS011;16488;52.396;10.696;2023-02-01T03:28:27;27.58;;;5.80;;
29550;SDS011;16488;52.396;10.696;2023-02-01T03:30:57;33.22;;;5.63;;
29550;SDS011;16488;52.396;10.696;2023-02-01T03:33:24;34.80;;;4.80;;
29550;SDS011;16488;52.396;10.696;2023-02-01T03:46:50;26.83;;;6.60;;
29550;SDS011;16488;52.396;10.696;2023-02-01T03:49:30;30.45;;;4.90;;
29550;SDS011;16488;52.396;10.696;2023-02-01T03:52:20;18.70;;;4.25;;
29550;SDS011;16488;52.396;10.696;2023-02-01T03:54:50;21.70;;;4.57;;
29550;SDS011;16488;52.396;10.696;2023-02-01T03:57:18;22.50;;;4.68;;
29550;SDS011;16488;52.396;10.696;2023-02-01T03:59:49;28.15;;;5.63;;
29550;SDS011;16488;52.396;10.696;2023-02-01T04:04:41;34.05;;;5.65;;
29550;SDS011;16488;52.396;10.696;2023-02-01T04:07:06;24.50;;;4.63;;
29550;SDS011;16488;52.396;10.696;2023-02-01T04:09:32;31.10;;;5.70;;
29550;SDS011;16488;52.396;10.696;2023-02-01T04:11:57;31.73;;;5.88;;
29550;SDS011;16488;52.396;10.696;2023-02-01T04:14:23;26.98;;;5.13;;
29550;SDS011;16488;52.396;10.696;2023-02-01T04:16:48;26.45;;;5.43;;
29550;SDS011;16488;52.396;10.696;2023-02-01T04:19:14;33.28;;;5.28;;
29550;SDS011;16488;52.396;10.696;2023-02-01T04:21:40;33.05;;;4.82;;
29550;SDS011;16488;52.396;10.696;2023-02-01T04:24:05;26.88;;;5.65;;
29550;SDS011;16488;52.396;10.696;2023-02-01T04:26:31;42.78;;;6.32;;
29550;SDS011;16488;52.396;10.696;2023-02-01T04:28:57;28.73;;;5.38;;
29550;SDS011;16488;52.396;10.696;2023-02-01T04:31:22;22.10;;;3.80;;
29550;SDS011;16488;52.396;10.696;2023-02-01T04:33:52;40.35;;;5.97;;
29550;SDS011;16488;52.396;10.696;2023-02-01T04:36:18;35.80;;;7.20;;
29550;SDS011;16488;52.396;10.696;2023-02-01T04:38:50;33.90;;;4.80;;
29550;SDS011;16488;52.396;10.696;2023-02-01T04:41:16;21.27;;;4.95;;
29550;SDS011;16488;52.396;10.696;2023-02-01T04:43:44;34.22;;;6.30;;
29550;SDS011;16488;52.396;10.696;2023-02-01T04:46:13;34.67;;;5.97;;
29550;SDS011;16488;52.396;10.696;2023-02-01T04:48:39;22.92;;;5.15;;
29550;SDS011;16488;52.396;10.696;2023-02-01T04:51:05;26.45;;;7.18;;
29550;SDS011;16488;52.396;10.696;2023-02-01T04:53:30;25.42;;;4.97;;
29550;SDS011;16488;52.396;10.696;2023-02-01T04:55:56;30.08;;;5.22;;
29550;SDS011;16488;52.396;10.696;2023-02-01T04:58:22;35.30;;;5.32;;
29550;SDS011;16488;52.396;10.696;2023-02-01T05:00:48;50.60;;;7.03;;
29550;SDS011;16488;52.396;10.696;2023-02-01T05:03:14;38.65;;;7.40;;
29550;SDS011;16488;52.396;10.696;2023-02-01T05:05:40;27.77;;;5.05;;
29550;SDS011;16488;52.396;10.696;2023-02-01T05:08:05;29.75;;;5.07;;
29550;SDS011;16488;52.396;10.696;2023-02-01T05:10:31;30.15;;;6.80;;
29550;SDS011;16488;52.396;10.696;2023-02-01T05:12:56;26.27;;;4.45;;
29550;SDS011;16488;52.396;10.696;2023-02-01T05:15:40;34.67;;;6.47;;
29550;SDS011;16488;52.396;10.696;2023-02-01T05:18:06;27.80;;;6.03;;
29550;SDS011;16488;52.396;10.696;2023-02-01T05:20:32;24.98;;;4.50;;
29550;SDS011;16488;52.396;10.696;2023-02-01T05:22:57;25.17;;;4.95;;
29550;SDS011;16488;52.396;10.696;2023-02-01T05:25:23;29.50;;;5.30;;
29550;SDS011;16488;52.396;10.696;2023-02-01T05:27:48;36.88;;;6.65;;
29550;SDS011;16488;52.396;10.696;2023-02-01T05:30:14;24.92;;;4.97;;
29550;SDS011;16488;52.396;10.696;2023-02-01T05:32:40;40.97;;;6.95;;
29550;SDS011;16488;52.396;10.696;2023-02-01T05:35:05;33.90;;;8.95;;
29550;SDS011;16488;52.396;10.696;2023-02-01T05:37:31;18.05;;;5.80;;
29550;SDS011;16488;52.396;10.696;2023-02-01T05:39:57;31.98;;;5.25;;
29550;SDS011;16488;52.396;10.696;2023-02-01T05:42:22;29.65;;;6.10;;
29550;SDS011;16488;52.396;10.696;2023-02-01T05:44:48;35.53;;;5.28;;
29550;SDS011;16488;52.396;10.696;2023-02-01T05:47:14;21.85;;;5.32;;
29550;SDS011;16488;52.396;10.696;2023-02-01T05:49:39;28.20;;;6.45;;
29550;SDS011;16488;52.396;10.696;2023-02-01T05:52:05;39.08;;;7.55;;
29550;SDS011;16488;52.396;10.696;2023-02-01T05:54:30;26.45;;;5.25;;
29550;SDS011;16488;52.396;10.696;2023-02-01T05:56:56;41.60;;;7.07;;
29550;SDS011;16488;52.396;10.696;2023-02-01T05:59:21;30.33;;;5.78;;
29550;SDS011;16488;52.396;10.696;2023-02-01T06:01:47;22.83;;;6.57;;
29550;SDS011;16488;52.396;10.696;2023-02-01T06:04:13;24.20;;;4.78;;
29550;SDS011;16488;52.396;10.696;2023-02-01T06:06:38;26.10;;;5.57;;
29550;SDS011;16488;52.396;10.696;2023-02-01T06:09:04;20.33;;;6.57;;
29550;SDS011;16488;52.396;10.696;2023-02-01T06:11:29;25.55;;;7.15;;
29550;SDS011;16488;52.396;10.696;2023-02-01T06:13:55;29.02;;;6.32;;
29550;SDS011;16488;52.396;10.696;2023-02-01T06:16:21;25.13;;;6.38;;
29550;SDS011;16488;52.396;10.696;2023-02-01T06:21:13;23.00;;;7.13;;
29550;SDS011;16488;52.396;10.696;2023-02-01T06:23:40;29.05;;;7.30;;
29550;SDS011;16488;52.396;10.696;2023-02-01T06:28:35;32.90;;;7.07;;
29550;SDS011;16488;52.396;10.696;2023-02-01T06:31:04;32.63;;;6.65;;
29550;SDS011;16488;52.396;10.696;2023-02-01T06:33:33;41.72;;;8.05;;
29550;SDS011;16488;52.396;10.696;2023-02-01T06:36:00;28.60;;;6.45;;
29550;SDS011;16488;52.396;10.696;2023-02-01T06:38:26;29.48;;;7.45;;
29550;SDS011;16488;52.396;10.696;2023-02-01T06:40:53;27.60;;;5.97;;
29550;SDS011;16488;52.396;10.696;2023-02-01T06:43:20;25.98;;;6.28;;
29550;SDS011;16488;52.396;10.696;2023-02-01T06:45:49;23.80;;;6.03;;
29550;SDS011;16488;52.396;10.696;2023-02-01T06:48:15;24.67;;;7.05;;
29550;SDS011;16488;52.396;10.696;2023-02-01T06:50:41;19.80;;;6.10;;
29550;SDS011;16488;52.396;10.696;2023-02-01T06:53:06;25.95;;;5.60;;
29550;SDS011;16488;52.396;10.696;2023-02-01T06:55:32;24.25;;;6.00;;
29550;SDS011;16488;52.396;10.696;2023-02-01T06:57:58;33.78;;;6.53;;
29550;SDS011;16488;52.396;10.696;2023-02-01T07:00:24;20.80;;;6.25;;
29550;SDS011;16488;52.396;10.696;2023-02-01T07:02:50;22.63;;;5.50;;
29550;SDS011;16488;52.396;10.696;2023-02-01T07:05:16;26.40;;;5.68;;
29550;SDS011;16488;52.396;10.696;2023-02-01T07:07:42;14.77;;;5.32;;
29550;SDS011;16488;52.396;10.696;2023-02-01T07:10:08;23.50;;;5.78;;
29550;SDS011;16488;52.396;10.696;2023-02-01T07:12:35;21.45;;;6.47;;
29550;SDS011;16488;52.396;10.696;2023-02-01T07:15:00;16.55;;;5.55;;
29550;SDS011;16488;52.396;10.696;2023-02-01T07:17:27;22.08;;;5.75;;
29550;SDS011;16488;52.396;10.696;2023-02-01T07:19:54;19.35;;;5.93;;
29550;SDS011;16488;52.396;10.696;2023-02-01T07:24:45;26.15;;;7.15;;
29550;SDS011;16488;52.396;10.696;2023-02-01T07:27:11;23.85;;;6.03;;
29550;SDS011;16488;52.396;10.696;2023-02-01T07:29:37;27.15;;;6.47;;
29550;SDS011;16488;52.396;10.696;2023-02-01T07:32:02;21.38;;;5.10;;
29550;SDS011;16488;52.396;10.696;2023-02-01T07:34:28;27.38;;;6.03;;
29550;SDS011;16488;52.396;10.696;2023-02-01T07:36:55;25.35;;;6.35;;
29550;SDS011;16488;52.396;10.696;2023-02-01T07:39:21;23.38;;;5.45;;
29550;SDS011;16488;52.396;10.696;2023-02-01T07:41:47;21.73;;;5.78;;
29550;SDS011;16488;52.396;10.696;2023-02-01T07:44:13;18.00;;;5.40;;
29550;SDS011;16488;52.396;10.696;2023-02-01T07:49:05;12.80;;;4.88;;
29550;SDS011;16488;52.396;10.696;2023-02-01T07:51:31;14.20;;;4.35;;
29550;SDS011;16488;52.396;10.696;2023-02-01T07:53:57;23.15;;;5.30;;
29550;SDS011;16488;52.396;10.696;2023-02-01T07:56:23;18.52;;;5.47;;
29550;SDS011;16488;52.396;10.696;2023-02-01T07:58:50;20.92;;;6.28;;
29550;SDS011;16488;52.396;10.696;2023-02-01T08:01:17;20.83;;;5.25;;
29550;SDS011;16488;52.396;10.696;2023-02-01T08:03:44;19.42;;;5.47;;
29550;SDS011;16488;52.396;10.696;2023-02-01T08:06:10;14.95;;;5.32;;
29550;SDS011;16488;52.396;10.696;2023-02-01T08:08:36;16.10;;;5.38;;
29550;SDS011;16488;52.396;10.696;2023-02-01T08:11:02;25.90;;;6.13;;
29550;SDS011;16488;52.396;10.696;2023-02-01T08:13:29;18.30;;;5.93;;
29550;SDS011;16488;52.396;10.696;2023-02-01T08:15:59;21.25;;;7.15;;
29550;SDS011;16488;52.396;10.696;2023-02-01T08:18:26;27.02;;;5.70;;
29550;SDS011;16488;52.396;10.696;2023-02-01T08:20:51;24.73;;;6.00;;
29550;SDS011;16488;52.396;10.696;2023-02-01T08:23:17;24.42;;;6.65;;
29550;SDS011;16488;52.396;10.696;2023-02-01T08:25:43;34.92;;;8.57;;
29550;SDS011;16488;52.396;10.696;2023-02-01T08:28:09;17.30;;;6.00;;
29550;SDS011;16488;52.396;10.696;2023-02-01T08:30:38;26.92;;;8.85;;
29550;SDS011;16488;52.396;10.696;2023-02-01T08:33:05;32.08;;;7.15;;
29550;SDS011;16488;52.396;10.696;2023-02-01T08:35:36;21.83;;;7.13;;
29550;SDS011;16488;52.396;10.696;2023-02-01T08:38:02;17.48;;;5.10;;
29550;SDS011;16488;52.396;10.696;2023-02-01T08:40:29;28.92;;;5.10;;
29550;SDS011;16488;52.396;10.696;2023-02-01T08:45:23;26.80;;;7.85;;
29550;SDS011;16488;52.396;10.696;2023-02-01T08:47:51;15.05;;;4.20;;
29550;SDS011;16488;52.396;10.696;2023-02-01T08:50:18;14.18;;;5.13;;
29550;SDS011;16488;52.396;10.696;2023-02-01T08:52:45;25.33;;;7.47;;
29550;SDS011;16488;52.396;10.696;2023-02-01T08:55:11;21.10;;;5.97;;
29550;SDS011;16488;52.396;10.696;2023-02-01T08:57:38;22.02;;;5.85;;
29550;SDS011;16488;52.396;10.696;2023-02-01T09:00:04;20.25;;;7.10;;
29550;SDS011;16488;52.396;10.696;2023-02-01T09:02:32;16.40;;;3.83;;
29550;SDS011;16488;52.396;10.696;2023-02-01T09:04:58;15.18;;;4.55;;
29550;SDS011;16488;52.396;10.696;2023-02-01T09:07:24;15.82;;;3.45;;
29550;SDS011;16488;52.396;10.696;2023-02-01T09:09:50;13.35;;;3.08;;
29550;SDS011;16488;52.396;10.696;2023-02-01T09:12:16;9.15;;;2.65;;
29550;SDS011;16488;52.396;10.696;2023-02-01T09:14:41;11.85;;;3.00;;
29550;SDS011;16488;52.396;10.696;2023-02-01T09:17:07;15.00;;;3.83;;
29550;SDS011;16488;52.396;10.696;2023-02-01T09:21:59;9.48;;;3.35;;
29550;SDS011;16488;52.396;10.696;2023-02-01T09:24:24;17.45;;;3.38;;
29550;SDS011;16488;52.396;10.696;2023-02-01T09:26:50;19.90;;;3.55;;
29550;SDS011;16488;52.396;10.696;2023-02-01T09:29:17;15.95;;;5.25;;
29550;SDS011;16488;52.396;10.696;2023-02-01T09:31:43;13.07;;;3.00;;
29550;SDS011;16488;52.396;10.696;2023-02-01T09:34:08;12.50;;;3.60;;
29550;SDS011;16488;52.396;10.696;2023-02-01T09:36:34;17.50;;;3.63;;
29550;SDS011;16488;52.396;10.696;2023-02-01T09:39:00;24.00;;;6.97;;
29550;SDS011;16488;52.396;10.696;2023-02-01T09:44:04;17.52;;;4.18;;
29550;SDS011;16488;52.396;10.696;2023-02-01T09:46:42;13.80;;;4.38;;
29550;SDS011;16488;52.396;10.696;2023-02-01T09:49:15;30.60;;;6.47;;
29550;SDS011;16488;52.396;10.696;2023-02-01T09:51:49;18.42;;;5.55;;
29550;SDS011;16488;52.396;10.696;2023-02-01T09:54:22;20.60;;;5.40;;
29550;SDS011;16488;52.396;10.696;2023-02-01T09:56:55;22.90;;;6.25;;
29550;SDS011;16488;52.396;10.696;2023-02-01T09:59:40;19.88;;;5.20;;
29550;SDS011;16488;52.396;10.696;2023-02-01T10:02:18;34.63;;;6.85;;
29550;SDS011;16488;52.396;10.696;2023-02-01T10:04:47;37.00;;;7.15;;
29550;SDS011;16488;52.396;10.696;2023-02-01T10:07:26;27.02;;;6.22;;
29550;SDS011;16488;52.396;10.696;2023-02-01T10:10:04;31.65;;;6.38;;
29550;SDS011;16488;52.396;10.696;2023-02-01T10:21:19;21.55;;;4.50;;
29550;SDS011;16488;52.396;10.696;2023-02-01T10:23:56;15.68;;;4.13;;
29550;SDS011;16488;52.396;10.696;2023-02-01T10:26:30;30.37;;;6.77;;
29550;SDS011;16488;52.396;10.696;2023-02-01T10:29:02;19.50;;;5.03;;
29550;SDS011;16488;52.396;10.696;2023-02-01T10:31:30;23.20;;;5.35;;
29550;SDS011;16488;52.396;10.696;2023-02-01T10:34:00;37.55;;;9.55;;
29550;SDS011;16488;52.396;10.696;2023-02-01T10:36:41;24.58;;;5.47;;
29550;SDS011;16488;52.396;10.696;2023-02-01T10:39:14;22.35;;;4.78;;
29550;SDS011;16488;52.396;10.696;2023-02-01T10:46:38;22.38;;;5.30;;
29550;SDS011;16488;52.396;10.696;2023-02-01T10:49:04;19.27;;;3.35;;
29550;SDS011;16488;52.396;10.696;2023-02-01T10:51:39;19.58;;;4.40;;
29550;SDS011;16488;52.396;10.696;2023-02-01T10:54:19;25.35;;;5.72;;
29550;SDS011;16488;52.396;10.696;2023-02-01T10:56:47;22.33;;;5.45;;
29550;SDS011;16488;52.396;10.696;2023-02-01T10:59:18;35.35;;;5.15;;
29550;SDS011;16488;52.396;10.696;2023-02-01T11:01:46;19.70;;;4.88;;
29550;SDS011;16488;52.396;10.696;2023-02-01T11:04:14;25.40;;;4.93;;
29550;SDS011;16488;52.396;10.696;2023-02-01T11:06:45;30.30;;;6.00;;
29550;SDS011;16488;52.396;10.696;2023-02-01T11:09:32;15.23;;;4.05;;
29550;SDS011;16488;52.396;10.696;2023-02-01T11:12:04;20.67;;;4.32;;
29550;SDS011;16488;52.396;10.696;2023-02-01T11:14:45;16.55;;;3.55;;
29550;SDS011;16488;52.396;10.696;2023-02-01T11:19:57;20.48;;;3.70;;
29550;SDS011;16488;52.396;10.696;2023-02-01T11:22:37;16.98;;;4.68;;
29550;SDS011;16488;52.396;10.696;2023-02-01T11:25:07;26.38;;;4.13;;
29550;SDS011;16488;52.396;10.696;2023-02-01T11:27:35;24.25;;;4.63;;
29550;SDS011;16488;52.396;10.696;2023-02-01T11:30:03;28.23;;;4.72;;
29550;SDS011;16488;52.396;10.696;2023-02-01T11:32:29;18.45;;;5.03;;
29550;SDS011;16488;52.396;10.696;2023-02-01T11:35:05;24.05;;;5.60;;
29550;SDS011;16488;52.396;10.696;2023-02-01T11:37:38;22.58;;;4.95;;
29550;SDS011;16488;52.396;10.696;2023-02-01T11:42:52;14.10;;;4.05;;
29550;SDS011;16488;52.396;10.696;2023-02-01T11:45:24;27.80;;;4.38;;
29550;SDS011;16488;52.396;10.696;2023-02-01T11:47:55;25.00;;;6.03;;
29550;SDS011;16488;52.396;10.696;2023-02-01T12:04:17;23.10;;;4.20;;
29550;SDS011;16488;52.396;10.696;2023-02-01T12:12:00;20.35;;;3.72;;
29550;SDS011;16488;52.396;10.696;2023-02-01T12:15:03;11.57;;;3.50;;
29550;SDS011;16488;52.396;10.696;2023-02-01T12:21:15;16.40;;;3.63;;
29550;SDS011;16488;52.396;10.696;2023-02-01T12:34:37;12.82;;;3.90;;
29550;SDS011;16488;52.396;10.696;2023-02-01T12:42:47;26.05;;;4.00;;
29550;SDS011;16488;52.396;10.696;2023-02-01T12:45:33;16.33;;;4.35;;
29550;SDS011;16488;52.396;10.696;2023-02-01T12:48:28;12.55;;;3.90;;
29550;SDS011;16488;52.396;10.696;2023-02-01T12:50:55;20.23;;;4.93;;
29550;SDS011;16488;52.396;10.696;2023-02-01T12:56:06;20.20;;;3.85;;
29550;SDS011;16488;52.396;10.696;2023-02-01T12:58:42;15.18;;;3.72;;
29550;SDS011;16488;52.396;10.696;2023-02-01T13:01:28;12.68;;;3.13;;
29550;SDS011;16488;52.396;10.696;2023-02-01T13:04:12;27.17;;;4.70;;
29550;SDS011;16488;52.396;10.696;2023-02-01T13:06:47;20.55;;;4.80;;
29550;SDS011;16488;52.396;10.696;2023-02-01T13:12:19;20.60;;;3.80;;
29550;SDS011;16488;52.396;10.696;2023-02-01T13:17:47;16.88;;;3.95;;
29550;SDS011;16488;52.396;10.696;2023-02-01T13:20:25;21.60;;;4.45;;
29550;SDS011;16488;52.396;10.696;2023-02-01T13:23:29;16.73;;;4.35;;
29550;SDS011;16488;52.396;10.696;2023-02-01T13:25:58;14.55;;;4.03;;
29550;SDS011;16488;52.396;10.696;2023-02-01T13:28:25;16.00;;;3.65;;
29550;SDS011;16488;52.396;10.696;2023-02-01T13:31:42;19.65;;;5.35;;
29550;SDS011;16488;52.396;10.696;2023-02-01T13:42:02;20.10;;;3.55;;
29550;SDS011;16488;52.396;10.696;2023-02-01T13:44:43;25.70;;;4.25;;
29550;SDS011;16488;52.396;10.696;2023-02-01T13:47:29;18.52;;;4.78;;
29550;SDS011;16488;52.396;10.696;2023-02-01T13:50:02;18.83;;;4.55;;
29550;SDS011;16488;52.396;10.696;2023-02-01T13:52:38;9.65;;;3.88;;
29550;SDS011;16488;52.396;10.696;2023-02-01T13:55:14;8.27;;;3.15;;
29550;SDS011;16488;52.396;10.696;2023-02-01T13:57:50;16.10;;;2.95;;
29550;SDS011;16488;52.396;10.696;2023-02-01T14:00:28;7.90;;;2.03;;
29550;SDS011;16488;52.396;10.696;2023-02-01T14:08:14;6.78;;;1.63;;
29550;SDS011;16488;52.396;10.696;2023-02-01T14:26:51;8.73;;;4.35;;
29550;SDS011;16488;52.396;10.696;2023-02-01T14:44:53;5.80;;;1.50;;
29550;SDS011;16488;52.396;10.696;2023-02-01T14:47:40;8.65;;;1.10;;
29550;SDS011;16488;52.396;10.696;2023-02-01T14:52:36;2.28;;;1.10;;
29550;SDS011;16488;52.396;10.696;2023-02-01T14:55:18;3.33;;;1.13;;
29550;SDS011;16488;52.396;10.696;2023-02-01T14:57:50;2.75;;;1.42;;
29550;SDS011;16488;52.396;10.696;2023-02-01T15:00:24;4.28;;;1.60;;
29550;SDS011;16488;52.396;10.696;2023-02-01T15:02:52;6.50;;;0.95;;
29550;SDS011;16488;52.396;10.696;2023-02-01T15:05:24;9.75;;;2.13;;
29550;SDS011;16488;52.396;10.696;2023-02-01T15:07:55;6.65;;;1.40;;
29550;SDS011;16488;52.396;10.696;2023-02-01T15:10:25;2.55;;;1.13;;
29550;SDS011;16488;52.396;10.696;2023-02-01T15:12:51;4.80;;;1.98;;
29550;SDS011;16488;52.396;10.696;2023-02-01T15:15:21;4.55;;;1.45;;
29550;SDS011;16488;52.396;10.696;2023-02-01T15:17:52;4.78;;;1.50;;
29550;SDS011;16488;52.396;10.696;2023-02-01T15:20:21;8.52;;;1.98;;
29550;SDS011;16488;52.396;10.696;2023-02-01T15:22:55;8.55;;;2.25;;
29550;SDS011;16488;52.396;10.696;2023-02-01T15:25:26;2.28;;;1.88;;
29550;SDS011;16488;52.396;10.696;2023-02-01T15:27:53;5.72;;;2.20;;
29550;SDS011;16488;52.396;10.696;2023-02-01T15:32:47;5.78;;;1.90;;
29550;SDS011;16488;52.396;10.696;2023-02-01T15:46:21;7.00;;;2.42;;
29550;SDS011;16488;52.396;10.696;2023-02-01T15:49:01;6.93;;;2.40;;
29550;SDS011;16488;52.396;10.696;2023-02-01T15:51:29;4.15;;;2.13;;
29550;SDS011;16488;52.396;10.696;2023-02-01T15:54:02;7.32;;;2.40;;
29550;SDS011;16488;52.396;10.696;2023-02-01T15:56:36;7.63;;;2.80;;
29550;SDS011;16488;52.396;10.696;2023-02-01T15:59:28;12.88;;;2.28;;
29550;SDS011;16488;52.396;10.696;2023-02-01T16:01:54;15.88;;;2.80;;
29550;SDS011;16488;52.396;10.696;2023-02-01T16:04:24;12.93;;;3.95;;
29550;SDS011;16488;52.396;10.696;2023-02-01T16:06:55;7.28;;;1.67;;
29550;SDS011;16488;52.396;10.696;2023-02-01T16:09:34;4.90;;;2.08;;
29550;SDS011;16488;52.396;10.696;2023-02-01T16:12:02;14.95;;;2.33;;
29550;SDS011;16488;52.396;10.696;2023-02-01T16:14:29;13.98;;;4.22;;
29550;SDS011;16488;52.396;10.696;2023-02-01T16:16:57;7.53;;;2.22;;
29550;SDS011;16488;52.396;10.696;2023-02-01T16:19:23;11.55;;;2.63;;
29550;SDS011;16488;52.396;10.696;2023-02-01T16:21:53;9.90;;;2.08;;
29550;SDS011;16488;52.396;10.696;2023-02-01T16:24:19;14.73;;;2.75;;
29550;SDS011;16488;52.396;10.696;2023-02-01T16:26:47;10.73;;;2.35;;
29550;SDS011;16488;52.396;10.696;2023-02-01T16:29:12;10.15;;;2.33;;
29550;SDS011;16488;52.396;10.696;2023-02-01T16:31:40;10.90;;;2.60;;
29550;SDS011;16488;52.396;10.696;2023-02-01T16:34:06;4.97;;;1.85;;
29550;SDS011;16488;52.396;10.696;2023-02-01T16:36:37;10.70;;;2.53;;
29550;SDS011;16488;52.396;10.696;2023-02-01T16:39:03;14.63;;;3.20;;
29550;SDS011;16488;52.396;10.696;2023-02-01T16:41:32;15.13;;;3.47;;
29550;SDS011;16488;52.396;10.696;2023-02-01T16:43:57;24.10;;;4.25;;
29550;SDS011;16488;52.396;10.696;2023-02-01T16:46:24;12.73;;;3.47;;
29550;SDS011;16488;52.396;10.696;2023-02-01T16:48:54;20.02;;;4.18;;
29550;SDS011;16488;52.396;10.696;2023-02-01T16:51:21;17.40;;;5.05;;
29550;SDS011;16488;52.396;10.696;2023-02-01T16:53:47;16.40;;;4.07;;
29550;SDS011;16488;52.396;10.696;2023-02-01T16:56:17;14.27;;;2.92;;
29550;SDS011;16488;52.396;10.696;2023-02-01T16:58:47;15.68;;;3.53;;
29550;SDS011;16488;52.396;10.696;2023-02-01T17:01:14;21.45;;;4.05;;
29550;SDS011;16488;52.396;10.696;2023-02-01T17:03:41;18.80;;;2.63;;
29550;SDS011;16488;52.396;10.696;2023-02-01T17:06:09;23.98;;;5.20;;
29550;SDS011;16488;52.396;10.696;2023-02-01T17:08:37;18.15;;;4.07;;
29550;SDS011;16488;52.396;10.696;2023-02-01T17:11:06;18.15;;;3.35;;
29550;SDS011;16488;52.396;10.696;2023-02-01T17:16:00;16.65;;;3.40;;
29550;SDS011;16488;52.396;10.696;2023-02-01T17:18:44;16.25;;;2.92;;
29550;SDS011;16488;52.396;10.696;2023-02-01T17:21:17;16.20;;;3.13;;
29550;SDS011;16488;52.396;10.696;2023-02-01T17:23:42;13.15;;;3.90;;
29550;SDS011;16488;52.396;10.696;2023-02-01T17:26:11;15.25;;;3.15;;
29550;SDS011;16488;52.396;10.696;2023-02-01T17:28:36;19.27;;;3.67;;
29550;SDS011;16488;52.396;10.696;2023-02-01T17:31:02;12.60;;;2.65;;
29550;SDS011;16488;52.396;10.696;2023-02-01T17:36:00;11.38;;;2.05;;
29550;SDS011;16488;52.396;10.696;2023-02-01T17:38:26;5.93;;;1.90;;
29550;SDS011;16488;52.396;10.696;2023-02-01T17:40:52;10.40;;;2.20;;
29550;SDS011;16488;52.396;10.696;2023-02-01T17:43:21;6.68;;;2.00;;
29550;SDS011;16488;52.396;10.696;2023-02-01T17:45:49;8.73;;;1.75;;
29550;SDS011;16488;52.396;10.696;2023-02-01T17:48:26;6.60;;;1.75;;
29550;SDS011;16488;52.396;10.696;2023-02-01T17:50:52;8.90;;;2.25;;
29550;SDS011;16488;52.396;10.696;2023-02-01T17:53:24;11.25;;;2.13;;
29550;SDS011;16488;52.396;10.696;2023-02-01T17:55:51;15.45;;;3.47;;
29550;SDS011;16488;52.396;10.696;2023-02-01T17:58:17;13.40;;;2.90;;
29550;SDS011;16488;52.396;10.696;2023-02-01T18:00:43;16.85;;;2.97;;
29550;SDS011;16488;52.396;10.696;2023-02-01T18:03:21;10.95;;;3.47;;